THY2478 LUKK-LTFM
Flight info
| Callsign | THY2478 |
|---|---|
| Flight time | 1h 15m |
| Altitude | 34000 |
| Route | LIPTA T34 BOTNA DCT USHUZ DCT RIPGA DCT PILAT/N0444F350 DCT MATEL N616 RIXEN |
| Aircraft | A320/M-SDE3FGHIRWY/LB1 |
Departure
| Time | 2026-05-06 09:45 |
|---|---|
| Airport | Chişinău International Airport (LUKK) |
Arrival
| Time | 2026-05-06 11:01 |
|---|---|
| Airport | İstanbul Airport (LTFM) |
| Time | Latitude | Longitude | Altitude | Speed | Heading |
|---|---|---|---|---|---|
| 2026-05-06 09:01 | 46.93386 | 28.93333 | 339 ft | 0 kts | 185° |
| 2026-05-06 09:27 | 46.93391 | 28.93334 | 339 ft | 4 kts | 174° |
| 2026-05-06 09:28 | 46.93403 | 28.93328 | 339 ft | 2 kts | 168° |
| 2026-05-06 09:28 | 46.93426 | 28.93316 | 339 ft | 4 kts | 137° |
| 2026-05-06 09:28 | 46.93439 | 28.93285 | 340 ft | 4 kts | 100° |
| 2026-05-06 09:28 | 46.93441 | 28.93269 | 336 ft | 1 kts | 96° |
| 2026-05-06 09:32 | 46.93440 | 28.93273 | 340 ft | 2 kts | 96° |
| 2026-05-06 09:32 | 46.93439 | 28.93288 | 340 ft | 0 kts | 96° |
| 2026-05-06 09:33 | 46.93439 | 28.93291 | 340 ft | 1 kts | 96° |
| 2026-05-06 09:33 | 46.93439 | 28.93293 | 340 ft | 0 kts | 96° |
| 2026-05-06 09:35 | 46.93438 | 28.93300 | 340 ft | 1 kts | 96° |
| 2026-05-06 09:35 | 46.93437 | 28.93321 | 338 ft | 3 kts | 96° |
| 2026-05-06 09:35 | 46.93434 | 28.93359 | 338 ft | 5 kts | 95° |
| 2026-05-06 09:36 | 46.93430 | 28.93420 | 337 ft | 7 kts | 97° |
| 2026-05-06 09:36 | 46.93394 | 28.93480 | 331 ft | 10 kts | 165° |
| 2026-05-06 09:36 | 46.93344 | 28.93474 | 333 ft | 0 kts | 184° |
| 2026-05-06 09:37 | 46.93341 | 28.93474 | 331 ft | 2 kts | 184° |
| 2026-05-06 09:37 | 46.93316 | 28.93471 | 333 ft | 6 kts | 184° |
| 2026-05-06 09:37 | 46.93267 | 28.93463 | 331 ft | 8 kts | 187° |
| 2026-05-06 09:37 | 46.93204 | 28.93448 | 336 ft | 9 kts | 189° |
| 2026-05-06 09:38 | 46.93151 | 28.93483 | 337 ft | 10 kts | 118° |
| 2026-05-06 09:38 | 46.93138 | 28.93599 | 330 ft | 14 kts | 97° |
| 2026-05-06 09:38 | 46.93125 | 28.93776 | 326 ft | 21 kts | 96° |
| 2026-05-06 09:38 | 46.93106 | 28.94004 | 322 ft | 25 kts | 98° |
| 2026-05-06 09:39 | 46.93083 | 28.94285 | 312 ft | 30 kts | 99° |
| 2026-05-06 09:39 | 46.93065 | 28.94539 | 310 ft | 22 kts | 96° |
| 2026-05-06 09:39 | 46.93044 | 28.94783 | 307 ft | 26 kts | 96° |
| 2026-05-06 09:39 | 46.93023 | 28.95026 | 304 ft | 20 kts | 97° |
| 2026-05-06 09:40 | 46.92974 | 28.95104 | 301 ft | 8 kts | 162° |
| 2026-05-06 09:40 | 46.92959 | 28.95105 | 299 ft | 0 kts | 184° |
| 2026-05-06 09:41 | 46.92948 | 28.95105 | 300 ft | 4 kts | 179° |
| 2026-05-06 09:41 | 46.92909 | 28.95109 | 298 ft | 7 kts | 174° |
| 2026-05-06 09:42 | 46.92850 | 28.95125 | 299 ft | 10 kts | 153° |
| 2026-05-06 09:42 | 46.92820 | 28.95238 | 294 ft | 14 kts | 89° |
| 2026-05-06 09:42 | 46.92859 | 28.95386 | 292 ft | 15 kts | 78° |
| 2026-05-06 09:42 | 46.92857 | 28.95409 | 291 ft | 3 kts | 109° |
| 2026-05-06 09:43 | 46.92831 | 28.95425 | 291 ft | 5 kts | 182° |
| 2026-05-06 09:43 | 46.92823 | 28.95387 | 294 ft | 4 kts | 276° |
| 2026-05-06 09:43 | 46.92824 | 28.95356 | 292 ft | 0 kts | 269° |
| 2026-05-06 09:44 | 46.92824 | 28.95325 | 297 ft | 19 kts | 269° |
| 2026-05-06 09:45 | 46.92811 | 28.94766 | 305 ft | 88 kts | 268° |
| 2026-05-06 09:45 | 46.92789 | 28.93609 | 337 ft | 137 kts | 268° |
| 2026-05-06 09:45 | 46.92749 | 28.92035 | 529 ft | 163 kts | 268° |
| 2026-05-06 09:45 | 46.92713 | 28.90359 | 1124 ft | 166 kts | 268° |
| 2026-05-06 09:46 | 46.92678 | 28.88643 | 1755 ft | 170 kts | 267° |
| 2026-05-06 09:46 | 46.92628 | 28.86885 | 2438 ft | 170 kts | 264° |
| 2026-05-06 09:46 | 46.92540 | 28.85191 | 3120 ft | 165 kts | 264° |
| 2026-05-06 09:46 | 46.92433 | 28.83588 | 3846 ft | 151 kts | 262° |
| 2026-05-06 09:47 | 46.92296 | 28.82160 | 4565 ft | 134 kts | 261° |
| 2026-05-06 09:47 | 46.92134 | 28.80709 | 4726 ft | 159 kts | 257° |
| 2026-05-06 09:47 | 46.91924 | 28.79017 | 4975 ft | 179 kts | 252° |
| 2026-05-06 09:47 | 46.91126 | 28.77563 | 5222 ft | 198 kts | 209° |
| 2026-05-06 09:48 | 46.89820 | 28.76603 | 5451 ft | 220 kts | 205° |
| 2026-05-06 09:48 | 46.88377 | 28.75583 | 5748 ft | 240 kts | 205° |
| 2026-05-06 09:48 | 46.86829 | 28.74485 | 6302 ft | 252 kts | 205° |
| 2026-05-06 09:48 | 46.85202 | 28.73327 | 6815 ft | 269 kts | 205° |
| 2026-05-06 09:49 | 46.83473 | 28.72095 | 7490 ft | 280 kts | 205° |
| 2026-05-06 09:49 | 46.81713 | 28.70854 | 7926 ft | 285 kts | 205° |
| 2026-05-06 09:49 | 46.79905 | 28.69582 | 8607 ft | 287 kts | 206° |
| 2026-05-06 09:49 | 46.78085 | 28.68307 | 9420 ft | 293 kts | 205° |
| 2026-05-06 09:50 | 46.76220 | 28.67004 | 9893 ft | 299 kts | 205° |
| 2026-05-06 09:50 | 46.74345 | 28.65692 | 10030 ft | 303 kts | 205° |
| 2026-05-06 09:50 | 46.72342 | 28.64289 | 10075 ft | 335 kts | 205° |
| 2026-05-06 09:50 | 46.70197 | 28.62788 | 10520 ft | 348 kts | 205° |
| 2026-05-06 09:51 | 46.67990 | 28.61244 | 11251 ft | 353 kts | 205° |
| 2026-05-06 09:51 | 46.65789 | 28.59711 | 11971 ft | 356 kts | 205° |
| 2026-05-06 09:51 | 46.63517 | 28.58123 | 12668 ft | 360 kts | 206° |
| 2026-05-06 09:51 | 46.61370 | 28.56206 | 13332 ft | 364 kts | 216° |
| 2026-05-06 09:52 | 46.59333 | 28.54069 | 13966 ft | 368 kts | 216° |
| 2026-05-06 09:52 | 46.57248 | 28.51871 | 14635 ft | 372 kts | 216° |
| 2026-05-06 09:52 | 46.55134 | 28.49650 | 15250 ft | 375 kts | 216° |
| 2026-05-06 09:52 | 46.53008 | 28.47424 | 15850 ft | 377 kts | 216° |
| 2026-05-06 09:53 | 46.50870 | 28.45191 | 16402 ft | 381 kts | 215° |
| 2026-05-06 09:53 | 46.48704 | 28.42934 | 16952 ft | 386 kts | 215° |
| 2026-05-06 09:53 | 46.46510 | 28.40650 | 17553 ft | 389 kts | 215° |
| 2026-05-06 09:53 | 46.44301 | 28.38351 | 18132 ft | 392 kts | 215° |
| 2026-05-06 09:54 | 46.42076 | 28.36039 | 18683 ft | 395 kts | 215° |
| 2026-05-06 09:54 | 46.39834 | 28.33714 | 19250 ft | 398 kts | 215° |
| 2026-05-06 09:54 | 46.37560 | 28.31380 | 19786 ft | 402 kts | 213° |
| 2026-05-06 09:54 | 46.35099 | 28.29442 | 20307 ft | 404 kts | 202° |
| 2026-05-06 09:55 | 46.32431 | 28.28148 | 20799 ft | 406 kts | 192° |
| 2026-05-06 09:55 | 46.29675 | 28.27400 | 21286 ft | 408 kts | 189° |
| 2026-05-06 09:55 | 46.26836 | 28.26676 | 21736 ft | 412 kts | 189° |
| 2026-05-06 09:55 | 46.24002 | 28.25942 | 22194 ft | 415 kts | 189° |
| 2026-05-06 09:56 | 46.21154 | 28.25202 | 22648 ft | 417 kts | 189° |
| 2026-05-06 09:56 | 46.18323 | 28.24467 | 23082 ft | 420 kts | 189° |
| 2026-05-06 09:56 | 46.15437 | 28.23717 | 23511 ft | 424 kts | 189° |
| 2026-05-06 09:56 | 46.12517 | 28.22958 | 23956 ft | 426 kts | 189° |
| 2026-05-06 09:57 | 46.09593 | 28.22204 | 24372 ft | 428 kts | 189° |
| 2026-05-06 09:57 | 46.06645 | 28.21449 | 24801 ft | 431 kts | 189° |
| 2026-05-06 09:57 | 46.03683 | 28.20691 | 25200 ft | 433 kts | 189° |
| 2026-05-06 09:57 | 46.00710 | 28.19929 | 25592 ft | 435 kts | 189° |
| 2026-05-06 09:58 | 45.97717 | 28.19163 | 25982 ft | 437 kts | 189° |
| 2026-05-06 09:58 | 45.94714 | 28.18398 | 26377 ft | 439 kts | 189° |
| 2026-05-06 09:58 | 45.91691 | 28.17627 | 26770 ft | 441 kts | 189° |
| 2026-05-06 09:58 | 45.88690 | 28.16860 | 27157 ft | 443 kts | 189° |
| 2026-05-06 09:59 | 45.85648 | 28.16081 | 27548 ft | 445 kts | 189° |
| 2026-05-06 09:59 | 45.82587 | 28.15294 | 27943 ft | 446 kts | 189° |
| 2026-05-06 09:59 | 45.79516 | 28.14511 | 28301 ft | 447 kts | 189° |
| 2026-05-06 09:59 | 45.76473 | 28.13523 | 28650 ft | 451 kts | 195° |
| 2026-05-06 10:00 | 45.73450 | 28.12280 | 29006 ft | 452 kts | 196° |
| 2026-05-06 10:00 | 45.70465 | 28.11048 | 29350 ft | 453 kts | 196° |
| 2026-05-06 10:00 | 45.67433 | 28.09812 | 29690 ft | 454 kts | 194° |
| 2026-05-06 10:00 | 45.64309 | 28.09245 | 30085 ft | 453 kts | 179° |
| 2026-05-06 10:01 | 45.61192 | 28.09789 | 30507 ft | 451 kts | 169° |
| 2026-05-06 10:01 | 45.58115 | 28.10644 | 30932 ft | 450 kts | 168° |
| 2026-05-06 10:01 | 45.55047 | 28.11511 | 31339 ft | 449 kts | 168° |
| 2026-05-06 10:01 | 45.51971 | 28.12391 | 31746 ft | 449 kts | 168° |
| 2026-05-06 10:02 | 45.48950 | 28.13261 | 32157 ft | 448 kts | 168° |
| 2026-05-06 10:02 | 45.45885 | 28.14143 | 32562 ft | 448 kts | 168° |
| 2026-05-06 10:02 | 45.42821 | 28.15018 | 32960 ft | 448 kts | 168° |
| 2026-05-06 10:02 | 45.39772 | 28.15879 | 33341 ft | 447 kts | 168° |
| 2026-05-06 10:03 | 45.36718 | 28.16735 | 33725 ft | 447 kts | 168° |
| 2026-05-06 10:03 | 45.33673 | 28.17581 | 34084 ft | 446 kts | 168° |
| 2026-05-06 10:03 | 45.30621 | 28.18428 | 34444 ft | 446 kts | 168° |
| 2026-05-06 10:03 | 45.27572 | 28.19281 | 34793 ft | 446 kts | 168° |
| 2026-05-06 10:04 | 45.24521 | 28.20139 | 35039 ft | 447 kts | 168° |
| 2026-05-06 10:04 | 45.21460 | 28.20998 | 35101 ft | 447 kts | 168° |
| 2026-05-06 10:04 | 45.15385 | 28.22706 | 35113 ft | 447 kts | 168° |
| 2026-05-06 10:05 | 45.09276 | 28.24415 | 35109 ft | 447 kts | 168° |
| 2026-05-06 10:05 | 45.03160 | 28.26123 | 35109 ft | 447 kts | 169° |
| 2026-05-06 10:06 | 44.97067 | 28.27821 | 35110 ft | 448 kts | 168° |
| 2026-05-06 10:06 | 44.90923 | 28.29524 | 35108 ft | 449 kts | 168° |
| 2026-05-06 10:07 | 44.84778 | 28.31212 | 35108 ft | 449 kts | 169° |
| 2026-05-06 10:07 | 44.78681 | 28.32905 | 35110 ft | 449 kts | 168° |
| 2026-05-06 10:08 | 44.72548 | 28.34605 | 35105 ft | 449 kts | 169° |
| 2026-05-06 10:08 | 44.67433 | 28.36015 | 35110 ft | 449 kts | 168° |
| 2026-05-06 10:09 | 44.61288 | 28.37706 | 35109 ft | 449 kts | 169° |
| 2026-05-06 10:09 | 44.55177 | 28.39382 | 35111 ft | 450 kts | 169° |
| 2026-05-06 10:10 | 44.49036 | 28.41051 | 35108 ft | 450 kts | 169° |
| 2026-05-06 10:10 | 44.42910 | 28.42720 | 35109 ft | 449 kts | 169° |
| 2026-05-06 10:11 | 44.36758 | 28.44387 | 35115 ft | 451 kts | 169° |
| 2026-05-06 10:11 | 44.30606 | 28.46060 | 35107 ft | 449 kts | 169° |
| 2026-05-06 10:12 | 44.24455 | 28.47732 | 35110 ft | 449 kts | 169° |
| 2026-05-06 10:12 | 44.18346 | 28.49390 | 35110 ft | 449 kts | 169° |
| 2026-05-06 10:13 | 44.12198 | 28.51058 | 35108 ft | 450 kts | 169° |
| 2026-05-06 10:13 | 44.06039 | 28.52712 | 35109 ft | 450 kts | 169° |
| 2026-05-06 10:14 | 43.99909 | 28.54359 | 35109 ft | 451 kts | 169° |
| 2026-05-06 10:14 | 43.93745 | 28.56010 | 35109 ft | 450 kts | 169° |
| 2026-05-06 10:15 | 43.87582 | 28.57649 | 35109 ft | 451 kts | 169° |
| 2026-05-06 10:15 | 43.81446 | 28.59287 | 35110 ft | 451 kts | 169° |
| 2026-05-06 10:16 | 43.75282 | 28.60944 | 35111 ft | 451 kts | 169° |
| 2026-05-06 10:16 | 43.69113 | 28.62590 | 35110 ft | 451 kts | 169° |
| 2026-05-06 10:17 | 43.62966 | 28.64215 | 35109 ft | 452 kts | 169° |
| 2026-05-06 10:17 | 43.56792 | 28.65841 | 35106 ft | 451 kts | 169° |
| 2026-05-06 10:18 | 43.50611 | 28.67469 | 35109 ft | 452 kts | 169° |
| 2026-05-06 10:18 | 43.44439 | 28.69102 | 35110 ft | 452 kts | 169° |
| 2026-05-06 10:19 | 43.38277 | 28.70735 | 35111 ft | 453 kts | 169° |
| 2026-05-06 10:19 | 43.32068 | 28.72367 | 35109 ft | 453 kts | 169° |
| 2026-05-06 10:20 | 43.25890 | 28.73987 | 35109 ft | 453 kts | 169° |
| 2026-05-06 10:20 | 43.19685 | 28.75605 | 35110 ft | 454 kts | 169° |
| 2026-05-06 10:21 | 43.13475 | 28.77228 | 35112 ft | 454 kts | 169° |
| 2026-05-06 10:21 | 43.07300 | 28.78819 | 35109 ft | 454 kts | 172° |
| 2026-05-06 10:22 | 43.00983 | 28.79063 | 35109 ft | 454 kts | 181° |
| 2026-05-06 10:22 | 42.94653 | 28.78888 | 35112 ft | 454 kts | 181° |
| 2026-05-06 10:23 | 42.88335 | 28.78735 | 35109 ft | 454 kts | 181° |
| 2026-05-06 10:23 | 42.81994 | 28.78568 | 34957 ft | 459 kts | 181° |
| 2026-05-06 10:24 | 42.78838 | 28.78485 | 34582 ft | 461 kts | 181° |
| 2026-05-06 10:24 | 42.75631 | 28.78395 | 34202 ft | 461 kts | 181° |
| 2026-05-06 10:24 | 42.72426 | 28.78302 | 33825 ft | 461 kts | 181° |
| 2026-05-06 10:24 | 42.69215 | 28.78213 | 33450 ft | 461 kts | 181° |
| 2026-05-06 10:25 | 42.65992 | 28.78130 | 33075 ft | 463 kts | 181° |
| 2026-05-06 10:25 | 42.62800 | 28.78048 | 32712 ft | 463 kts | 181° |
| 2026-05-06 10:25 | 42.59544 | 28.77963 | 32332 ft | 462 kts | 181° |
| 2026-05-06 10:25 | 42.56322 | 28.77879 | 31959 ft | 464 kts | 181° |
| 2026-05-06 10:26 | 42.53133 | 28.77800 | 31590 ft | 464 kts | 181° |
| 2026-05-06 10:26 | 42.49909 | 28.77718 | 31221 ft | 464 kts | 182° |
| 2026-05-06 10:26 | 42.46678 | 28.77628 | 30844 ft | 461 kts | 181° |
| 2026-05-06 10:26 | 42.43473 | 28.77534 | 30477 ft | 459 kts | 181° |
| 2026-05-06 10:27 | 42.40281 | 28.77442 | 30095 ft | 456 kts | 181° |
| 2026-05-06 10:27 | 42.37115 | 28.77355 | 29718 ft | 453 kts | 181° |
| 2026-05-06 10:27 | 42.33970 | 28.77277 | 29346 ft | 451 kts | 181° |
| 2026-05-06 10:27 | 42.30885 | 28.77202 | 28975 ft | 447 kts | 181° |
| 2026-05-06 10:28 | 42.27772 | 28.77124 | 28591 ft | 445 kts | 181° |
| 2026-05-06 10:28 | 42.24677 | 28.77041 | 28216 ft | 443 kts | 181° |
| 2026-05-06 10:28 | 42.21601 | 28.76956 | 27840 ft | 441 kts | 181° |
| 2026-05-06 10:28 | 42.18538 | 28.76872 | 27455 ft | 438 kts | 181° |
| 2026-05-06 10:29 | 42.15500 | 28.76790 | 27082 ft | 434 kts | 181° |
| 2026-05-06 10:29 | 42.12489 | 28.76716 | 26608 ft | 429 kts | 181° |
| 2026-05-06 10:29 | 42.09555 | 28.76644 | 26104 ft | 424 kts | 181° |
| 2026-05-06 10:29 | 42.06620 | 28.76595 | 25603 ft | 420 kts | 180° |
| 2026-05-06 10:30 | 42.03711 | 28.76648 | 25138 ft | 416 kts | 178° |
| 2026-05-06 10:30 | 42.00826 | 28.76778 | 24675 ft | 412 kts | 178° |
| 2026-05-06 10:30 | 41.97966 | 28.76940 | 24218 ft | 409 kts | 178° |
| 2026-05-06 10:30 | 41.95135 | 28.77099 | 23766 ft | 406 kts | 178° |
| 2026-05-06 10:31 | 41.92314 | 28.77245 | 23307 ft | 405 kts | 178° |
| 2026-05-06 10:31 | 41.89493 | 28.77384 | 22900 ft | 405 kts | 178° |
| 2026-05-06 10:31 | 41.86693 | 28.77499 | 22498 ft | 401 kts | 179° |
| 2026-05-06 10:31 | 41.83923 | 28.77597 | 22117 ft | 395 kts | 179° |
| 2026-05-06 10:32 | 41.81188 | 28.77673 | 21742 ft | 389 kts | 181° |
| 2026-05-06 10:32 | 41.78537 | 28.77170 | 21364 ft | 383 kts | 197° |
| 2026-05-06 10:32 | 41.76117 | 28.75783 | 20984 ft | 375 kts | 212° |
| 2026-05-06 10:32 | 41.74114 | 28.73675 | 20608 ft | 369 kts | 227° |
| 2026-05-06 10:33 | 41.72523 | 28.71007 | 20230 ft | 363 kts | 236° |
| 2026-05-06 10:33 | 41.71045 | 28.68292 | 19848 ft | 359 kts | 235° |
| 2026-05-06 10:33 | 41.69579 | 28.65604 | 19473 ft | 354 kts | 235° |
| 2026-05-06 10:33 | 41.68150 | 28.62980 | 19103 ft | 350 kts | 235° |
| 2026-05-06 10:34 | 41.66723 | 28.60363 | 18727 ft | 346 kts | 235° |
| 2026-05-06 10:34 | 41.65305 | 28.57772 | 18351 ft | 343 kts | 235° |
| 2026-05-06 10:34 | 41.63901 | 28.55215 | 17972 ft | 339 kts | 235° |
| 2026-05-06 10:34 | 41.62507 | 28.52678 | 17599 ft | 337 kts | 235° |
| 2026-05-06 10:35 | 41.61129 | 28.50163 | 17220 ft | 334 kts | 235° |
| 2026-05-06 10:35 | 41.59761 | 28.47662 | 16850 ft | 333 kts | 235° |
| 2026-05-06 10:35 | 41.58405 | 28.45187 | 16496 ft | 328 kts | 235° |
| 2026-05-06 10:35 | 41.57060 | 28.42736 | 16128 ft | 326 kts | 235° |
| 2026-05-06 10:36 | 41.55718 | 28.40299 | 15753 ft | 324 kts | 235° |
| 2026-05-06 10:36 | 41.54387 | 28.37882 | 15375 ft | 323 kts | 235° |
| 2026-05-06 10:36 | 41.53057 | 28.35470 | 15108 ft | 319 kts | 235° |
| 2026-05-06 10:36 | 41.51730 | 28.33109 | 15105 ft | 318 kts | 234° |
| 2026-05-06 10:37 | 41.50389 | 28.30753 | 14845 ft | 320 kts | 234° |
| 2026-05-06 10:37 | 41.49046 | 28.28409 | 14476 ft | 320 kts | 234° |
| 2026-05-06 10:37 | 41.47694 | 28.26049 | 14107 ft | 320 kts | 234° |
| 2026-05-06 10:37 | 41.46358 | 28.23708 | 13653 ft | 313 kts | 234° |
| 2026-05-06 10:38 | 41.45048 | 28.21409 | 13202 ft | 310 kts | 234° |
| 2026-05-06 10:38 | 41.43751 | 28.19129 | 12750 ft | 308 kts | 234° |
| 2026-05-06 10:38 | 41.42473 | 28.16879 | 12325 ft | 307 kts | 234° |
| 2026-05-06 10:38 | 41.41173 | 28.14590 | 11866 ft | 304 kts | 234° |
| 2026-05-06 10:39 | 41.39783 | 28.12514 | 11429 ft | 307 kts | 221° |
| 2026-05-06 10:39 | 41.37977 | 28.10960 | 10975 ft | 311 kts | 205° |
| 2026-05-06 10:39 | 41.35898 | 28.10146 | 10534 ft | 314 kts | 188° |
| 2026-05-06 10:39 | 41.33712 | 28.10058 | 10110 ft | 314 kts | 179° |
| 2026-05-06 10:40 | 41.31556 | 28.10104 | 9988 ft | 304 kts | 179° |
| 2026-05-06 10:40 | 41.29487 | 28.10145 | 10010 ft | 293 kts | 179° |
| 2026-05-06 10:40 | 41.27492 | 28.10141 | 10017 ft | 280 kts | 185° |
| 2026-05-06 10:40 | 41.25607 | 28.09595 | 10012 ft | 276 kts | 201° |
| 2026-05-06 10:41 | 41.23921 | 28.08404 | 10010 ft | 274 kts | 217° |
| 2026-05-06 10:41 | 41.22508 | 28.06711 | 10014 ft | 273 kts | 226° |
| 2026-05-06 10:41 | 41.21167 | 28.04964 | 10018 ft | 273 kts | 225° |
| 2026-05-06 10:41 | 41.19804 | 28.03195 | 10000 ft | 274 kts | 225° |
| 2026-05-06 10:42 | 41.18366 | 28.01536 | 10010 ft | 274 kts | 214° |
| 2026-05-06 10:42 | 41.16707 | 28.00256 | 10015 ft | 274 kts | 210° |
| 2026-05-06 10:42 | 41.15039 | 27.99017 | 10014 ft | 275 kts | 210° |
| 2026-05-06 10:42 | 41.13393 | 27.97790 | 10019 ft | 275 kts | 210° |
| 2026-05-06 10:43 | 41.11723 | 27.96541 | 10008 ft | 275 kts | 210° |
| 2026-05-06 10:43 | 41.09965 | 27.95529 | 10010 ft | 276 kts | 197° |
| 2026-05-06 10:43 | 41.08100 | 27.94898 | 10019 ft | 276 kts | 194° |
| 2026-05-06 10:44 | 41.04365 | 27.93635 | 10007 ft | 276 kts | 195° |
| 2026-05-06 10:44 | 41.02495 | 27.93011 | 10015 ft | 277 kts | 192° |
| 2026-05-06 10:44 | 41.00585 | 27.92790 | 10016 ft | 276 kts | 179° |
| 2026-05-06 10:44 | 40.98654 | 27.92827 | 10016 ft | 277 kts | 179° |
| 2026-05-06 10:45 | 40.96755 | 27.92981 | 10007 ft | 276 kts | 166° |
| 2026-05-06 10:45 | 40.95032 | 27.94030 | 10003 ft | 274 kts | 140° |
| 2026-05-06 10:45 | 40.93811 | 27.95935 | 9905 ft | 271 kts | 115° |
| 2026-05-06 10:45 | 40.93332 | 27.98321 | 9497 ft | 270 kts | 89° |
| 2026-05-06 10:46 | 40.93534 | 28.00775 | 9076 ft | 273 kts | 80° |
| 2026-05-06 10:46 | 40.93817 | 28.03281 | 8648 ft | 277 kts | 81° |
| 2026-05-06 10:46 | 40.94097 | 28.05825 | 8222 ft | 281 kts | 81° |
| 2026-05-06 10:46 | 40.94376 | 28.08397 | 7796 ft | 283 kts | 81° |
| 2026-05-06 10:47 | 40.94655 | 28.10992 | 7370 ft | 286 kts | 81° |
| 2026-05-06 10:47 | 40.94933 | 28.13606 | 6948 ft | 287 kts | 81° |
| 2026-05-06 10:47 | 40.95206 | 28.16187 | 6549 ft | 288 kts | 81° |
| 2026-05-06 10:47 | 40.95483 | 28.18825 | 6126 ft | 289 kts | 81° |
| 2026-05-06 10:48 | 40.95761 | 28.21477 | 5698 ft | 290 kts | 81° |
| 2026-05-06 10:48 | 40.96041 | 28.24129 | 5276 ft | 291 kts | 81° |
| 2026-05-06 10:48 | 40.96319 | 28.26721 | 5020 ft | 283 kts | 81° |
| 2026-05-06 10:48 | 40.96589 | 28.29267 | 5002 ft | 268 kts | 82° |
| 2026-05-06 10:49 | 40.96838 | 28.31646 | 5005 ft | 254 kts | 82° |
| 2026-05-06 10:49 | 40.97074 | 28.33902 | 5009 ft | 250 kts | 82° |
| 2026-05-06 10:49 | 40.97307 | 28.36149 | 5013 ft | 242 kts | 82° |
| 2026-05-06 10:49 | 40.97322 | 28.38350 | 5011 ft | 239 kts | 99° |
| 2026-05-06 10:50 | 40.96815 | 28.40430 | 5008 ft | 239 kts | 118° |
| 2026-05-06 10:50 | 40.95980 | 28.42347 | 5014 ft | 239 kts | 120° |
| 2026-05-06 10:50 | 40.95149 | 28.44256 | 5019 ft | 239 kts | 120° |
| 2026-05-06 10:50 | 40.94323 | 28.46175 | 5016 ft | 239 kts | 119° |
| 2026-05-06 10:51 | 40.93513 | 28.48060 | 5010 ft | 239 kts | 119° |
| 2026-05-06 10:51 | 40.92689 | 28.49975 | 5010 ft | 239 kts | 119° |
| 2026-05-06 10:51 | 40.91864 | 28.51886 | 5007 ft | 239 kts | 119° |
| 2026-05-06 10:51 | 40.91038 | 28.53797 | 5006 ft | 239 kts | 119° |
| 2026-05-06 10:52 | 40.90210 | 28.55713 | 5008 ft | 239 kts | 119° |
| 2026-05-06 10:52 | 40.89593 | 28.57737 | 5007 ft | 238 kts | 101° |
| 2026-05-06 10:52 | 40.89518 | 28.59916 | 5001 ft | 238 kts | 81° |
| 2026-05-06 10:52 | 40.89962 | 28.62020 | 5008 ft | 238 kts | 70° |
| 2026-05-06 10:53 | 40.90321 | 28.63389 | 5009 ft | 238 kts | 70° |
| 2026-05-06 10:53 | 40.90863 | 28.65459 | 5008 ft | 238 kts | 70° |
| 2026-05-06 10:53 | 40.91452 | 28.67498 | 5012 ft | 236 kts | 62° |
| 2026-05-06 10:53 | 40.92427 | 28.69244 | 5018 ft | 237 kts | 43° |
| 2026-05-06 10:54 | 40.94235 | 28.70844 | 5010 ft | 237 kts | 28° |
| 2026-05-06 10:54 | 40.95210 | 28.71556 | 5009 ft | 237 kts | 28° |
| 2026-05-06 10:54 | 40.96650 | 28.72613 | 5011 ft | 235 kts | 27° |
| 2026-05-06 10:54 | 40.98148 | 28.73273 | 5012 ft | 221 kts | 5° |
| 2026-05-06 10:55 | 40.99615 | 28.73289 | 5001 ft | 206 kts | 359° |
| 2026-05-06 10:55 | 41.01010 | 28.73262 | 5005 ft | 202 kts | 359° |
| 2026-05-06 10:55 | 41.02418 | 28.73236 | 4873 ft | 201 kts | 359° |
| 2026-05-06 10:55 | 41.03826 | 28.73208 | 4636 ft | 202 kts | 359° |
| 2026-05-06 10:56 | 41.05246 | 28.73181 | 4372 ft | 204 kts | 359° |
| 2026-05-06 10:56 | 41.06652 | 28.73156 | 4111 ft | 206 kts | 359° |
| 2026-05-06 10:56 | 41.08092 | 28.73126 | 3846 ft | 207 kts | 359° |
| 2026-05-06 10:56 | 41.09530 | 28.73099 | 3562 ft | 207 kts | 359° |
| 2026-05-06 10:57 | 41.10977 | 28.73071 | 3290 ft | 208 kts | 358° |
| 2026-05-06 10:57 | 41.12427 | 28.73041 | 3013 ft | 205 kts | 359° |
| 2026-05-06 10:57 | 41.13849 | 28.73009 | 2750 ft | 209 kts | 358° |
| 2026-05-06 10:57 | 41.15303 | 28.72985 | 2469 ft | 207 kts | 359° |
| 2026-05-06 10:58 | 41.16715 | 28.72960 | 2203 ft | 196 kts | 358° |
| 2026-05-06 10:58 | 41.18024 | 28.72935 | 1936 ft | 180 kts | 359° |
| 2026-05-06 10:58 | 41.19231 | 28.72911 | 1707 ft | 166 kts | 0° |
| 2026-05-06 10:58 | 41.20339 | 28.72889 | 1482 ft | 153 kts | 1° |
| 2026-05-06 10:59 | 41.21380 | 28.72868 | 1292 ft | 146 kts | 1° |
| 2026-05-06 10:59 | 41.22369 | 28.72849 | 1102 ft | 140 kts | 1° |
| 2026-05-06 10:59 | 41.23322 | 28.72833 | 911 ft | 138 kts | 1° |
| 2026-05-06 10:59 | 41.24285 | 28.72802 | 739 ft | 136 kts | 1° |
| 2026-05-06 11:00 | 41.25225 | 28.72791 | 589 ft | 137 kts | 1° |
| 2026-05-06 11:00 | 41.26175 | 28.72768 | 407 ft | 136 kts | 360° |
| 2026-05-06 11:00 | 41.27104 | 28.72740 | 302 ft | 123 kts | 0° |
| 2026-05-06 11:00 | 41.27803 | 28.72741 | 280 ft | 77 kts | 360° |
| 2026-05-06 11:01 | 41.28217 | 28.72739 | 268 ft | 25 kts | 359° |
| 2026-05-06 11:01 | 41.28276 | 28.72752 | 266 ft | 10 kts | 24° |
| 2026-05-06 11:01 | 41.28351 | 28.72802 | 264 ft | 14 kts | 23° |
| 2026-05-06 11:01 | 41.28426 | 28.72856 | 265 ft | 0 kts | 29° |
| 2026-05-06 11:03 | 41.28431 | 28.72860 | 265 ft | 2 kts | 29° |
| 2026-05-06 11:03 | 41.28455 | 28.72881 | 264 ft | 6 kts | 33° |
| 2026-05-06 11:03 | 41.28457 | 28.72929 | 265 ft | 6 kts | 108° |
| 2026-05-06 11:04 | 41.28424 | 28.72960 | 266 ft | 6 kts | 176° |
| 2026-05-06 11:04 | 41.28381 | 28.72962 | 267 ft | 6 kts | 180° |
| 2026-05-06 11:04 | 41.28336 | 28.72963 | 268 ft | 7 kts | 179° |
| 2026-05-06 11:04 | 41.28288 | 28.72964 | 270 ft | 7 kts | 179° |
| 2026-05-06 11:05 | 41.28241 | 28.72963 | 271 ft | 7 kts | 179° |
| 2026-05-06 11:05 | 41.28194 | 28.72964 | 273 ft | 7 kts | 179° |
| 2026-05-06 11:05 | 41.28143 | 28.72965 | 275 ft | 7 kts | 179° |
| 2026-05-06 11:05 | 41.28091 | 28.72967 | 277 ft | 7 kts | 179° |
| 2026-05-06 11:06 | 41.28041 | 28.72968 | 278 ft | 7 kts | 179° |
| 2026-05-06 11:06 | 41.27994 | 28.72968 | 280 ft | 7 kts | 179° |
| 2026-05-06 11:06 | 41.27945 | 28.72969 | 282 ft | 7 kts | 180° |
| 2026-05-06 11:06 | 41.27897 | 28.72970 | 286 ft | 7 kts | 179° |
| 2026-05-06 11:07 | 41.27850 | 28.72971 | 285 ft | 7 kts | 179° |
| 2026-05-06 11:07 | 41.27806 | 28.72972 | 287 ft | 6 kts | 179° |
| 2026-05-06 11:07 | 41.27759 | 28.72973 | 292 ft | 12 kts | 176° |
| 2026-05-06 11:07 | 41.27648 | 28.72974 | 298 ft | 16 kts | 174° |
| 2026-05-06 11:08 | 41.27534 | 28.72978 | 301 ft | 17 kts | 179° |
| 2026-05-06 11:08 | 41.27420 | 28.72980 | 302 ft | 15 kts | 179° |
| 2026-05-06 11:08 | 41.27308 | 28.72981 | 305 ft | 17 kts | 178° |
| 2026-05-06 11:08 | 41.27185 | 28.72983 | 306 ft | 18 kts | 183° |
| 2026-05-06 11:09 | 41.27051 | 28.72987 | 307 ft | 20 kts | 179° |
| 2026-05-06 11:09 | 41.26926 | 28.72989 | 309 ft | 15 kts | 176° |
| 2026-05-06 11:09 | 41.26865 | 28.73072 | 310 ft | 14 kts | 90° |
| 2026-05-06 11:09 | 41.26866 | 28.73127 | 309 ft | 5 kts | 90° |
| 2026-05-06 11:10 | 41.26866 | 28.73165 | 311 ft | 2 kts | 90° |
| 2026-05-06 11:10 | 41.26866 | 28.73185 | 312 ft | 5 kts | 89° |
| 2026-05-06 11:10 | 41.26868 | 28.73243 | 313 ft | 6 kts | 88° |
| 2026-05-06 11:10 | 41.26869 | 28.73311 | 313 ft | 8 kts | 89° |
| 2026-05-06 11:11 | 41.26869 | 28.73401 | 313 ft | 11 kts | 91° |
| 2026-05-06 11:11 | 41.26870 | 28.73519 | 313 ft | 14 kts | 89° |
| 2026-05-06 11:11 | 41.26872 | 28.73666 | 313 ft | 17 kts | 89° |
| 2026-05-06 11:11 | 41.26870 | 28.73821 | 313 ft | 13 kts | 101° |
| 2026-05-06 11:12 | 41.26804 | 28.73870 | 313 ft | 13 kts | 176° |
| 2026-05-06 11:12 | 41.26707 | 28.73871 | 313 ft | 15 kts | 180° |
| 2026-05-06 11:12 | 41.26590 | 28.73874 | 313 ft | 18 kts | 181° |
| 2026-05-06 11:12 | 41.26495 | 28.73894 | 313 ft | 7 kts | 162° |
| 2026-05-06 11:13 | 41.26441 | 28.73894 | 313 ft | 9 kts | 213° |
| 2026-05-06 11:13 | 41.26422 | 28.73818 | 313 ft | 0 kts | 250° |
| 2026-05-06 11:13 | 41.26419 | 28.73811 | 312 ft | 2 kts | 248° |
| 2026-05-06 11:13 | 41.26417 | 28.73804 | 313 ft | 1 kts | 249° |
| 2026-05-06 11:14 | 41.26415 | 28.73796 | 313 ft | 0 kts | 250° |